Time,TemperatureF,DewpointF,PressureIn,WindDirection,WindDirectionDegrees,WindSpeedMPH,WindSpeedGustMPH,Humidity,HourlyPrecipIn,Conditions,Clouds,dailyrainin,SoftwareType,DateUTC
2013-07-17 00:10:00,73.4,70.9,30.08,NW,313,0.0,0.0,92,0.00,,,0.00,Wunderground v.1.15,2013-07-17 04:10:00,
2013-07-17 00:15:00,73.2,71.1,30.08,NW,313,0.0,0.0,93,0.00,,,0.00,Wunderground v.1.15,2013-07-17 04:15:00,
2013-07-17 00:20:00,73.0,70.9,30.08,NW,313,0.0,0.0,93,0.00,,,0.00,Wunderground v.1.15,2013-07-17 04:20:00,
2013-07-17 00:25:00,72.8,70.7,30.08,NW,313,0.0,0.0,93,0.00,,,0.00,Wunderground v.1.15,2013-07-17 04:25:00,
2013-07-17 00:30:00,72.7,70.9,30.08,NW,313,0.0,0.0,94,0.00,,,0.00,Wunderground v.1.15,2013-07-17 04:30:00,
2013-07-17 00:35:00,72.5,70.7,30.08,NW,313,0.0,0.0,94,0.00,,,0.00,Wunderground v.1.15,2013-07-17 04:35:00,
2013-07-17 00:45:00,72.1,70.3,30.08,NW,313,0.0,0.0,94,0.00,,,0.00,Wunderground v.1.15,2013-07-17 04:45:00,
2013-07-17 00:50:00,71.9,70.1,30.08,NW,313,0.0,0.0,94,0.00,,,0.00,Wunderground v.1.15,2013-07-17 04:50:00,
2013-07-17 00:55:00,71.7,70.2,30.08,NW,313,0.0,0.0,95,0.00,,,0.00,Wunderground v.1.15,2013-07-17 04:55:00,
2013-07-17 01:10:00,71.5,70.0,30.08,NW,313,0.0,0.0,95,0.00,,,0.00,Wunderground v.1.15,2013-07-17 05:10:00,
2013-07-17 01:20:00,71.4,70.2,30.07,NW,313,0.0,0.0,96,0.00,,,0.00,Wunderground v.1.15,2013-07-17 05:20:00,
2013-07-17 01:25:00,71.3,70.1,30.07,NW,313,0.0,0.0,96,0.00,,,0.00,Wunderground v.1.15,2013-07-17 05:25:00,
2013-07-17 01:30:00,71.2,70.0,30.07,NW,313,0.0,0.0,96,0.00,,,0.00,Wunderground v.1.15,2013-07-17 05:30:00,
2013-07-17 01:40:00,71.0,69.8,30.07,NW,313,0.0,0.0,96,0.00,,,0.00,Wunderground v.1.15,2013-07-17 05:40:00,
2013-07-17 01:45:00,71.0,69.8,30.07,NW,313,0.0,0.0,96,0.00,,,0.00,Wunderground v.1.15,2013-07-17 05:45:00,
2013-07-17 01:50:00,70.9,69.7,30.08,NW,313,0.0,0.0,96,0.00,,,0.00,Wunderground v.1.15,2013-07-17 05:50:00,
2013-07-17 01:55:00,70.8,69.6,30.08,NW,313,0.0,0.0,96,0.00,,,0.00,Wunderground v.1.15,2013-07-17 05:55:00,
2013-07-17 02:10:00,70.7,69.8,30.07,NW,313,0.0,0.0,97,0.00,,,0.00,Wunderground v.1.15,2013-07-17 06:10:00,
2013-07-17 02:20:00,70.7,69.8,30.07,NW,313,0.0,0.0,97,0.00,,,0.00,Wunderground v.1.15,2013-07-17 06:20:00,
2013-07-17 02:25:00,70.5,69.6,30.07,NW,313,0.0,0.0,97,0.00,,,0.00,Wunderground v.1.15,2013-07-17 06:25:00,
2013-07-17 02:30:00,70.4,69.5,30.07,NW,313,0.0,0.0,97,0.00,,,0.00,Wunderground v.1.15,2013-07-17 06:30:00,
2013-07-17 02:35:00,70.4,69.5,30.07,NW,313,0.0,0.0,97,0.00,,,0.00,Wunderground v.1.15,2013-07-17 06:35:00,
2013-07-17 02:45:00,70.3,69.4,30.07,NW,313,0.0,0.0,97,0.00,,,0.00,Wunderground v.1.15,2013-07-17 06:45:00,
2013-07-17 02:50:00,70.1,69.2,30.07,NW,313,0.0,0.0,97,0.00,,,0.00,Wunderground v.1.15,2013-07-17 06:50:00,
2013-07-17 02:55:00,70.1,69.2,30.07,NW,313,0.0,0.0,97,0.00,,,0.00,Wunderground v.1.15,2013-07-17 06:55:00,
2013-07-17 03:00:00,70.1,69.2,30.07,NW,313,0.0,0.0,97,0.00,,,0.00,Wunderground v.1.15,2013-07-17 07:00:00,
2013-07-17 03:10:00,70.0,69.1,30.07,NW,313,0.0,0.0,97,0.00,,,0.00,Wunderground v.1.15,2013-07-17 07:10:00,
2013-07-17 03:15:00,69.9,69.0,30.07,NW,313,0.0,0.0,97,0.00,,,0.00,Wunderground v.1.15,2013-07-17 07:15:00,
2013-07-17 03:25:00,69.8,69.2,30.07,NW,313,0.0,0.0,98,0.00,,,0.00,Wunderground v.1.15,2013-07-17 07:25:00,
2013-07-17 03:30:00,69.8,69.2,30.07,NW,313,0.0,0.0,98,0.00,,,0.00,Wunderground v.1.15,2013-07-17 07:30:00,
2013-07-17 03:35:00,69.8,69.2,30.07,NW,313,0.0,0.0,98,0.00,,,0.00,Wunderground v.1.15,2013-07-17 07:35:00,
2013-07-17 03:40:00,69.7,69.1,30.07,NW,313,0.0,0.0,98,0.00,,,0.00,Wunderground v.1.15,2013-07-17 07:40:00,
2013-07-17 03:50:00,69.6,69.0,30.07,NW,313,0.0,0.0,98,0.00,,,0.00,Wunderground v.1.15,2013-07-17 07:50:00,
2013-07-17 03:55:00,69.5,68.9,30.07,NW,313,0.0,0.0,98,0.00,,,0.00,Wunderground v.1.15,2013-07-17 07:55:00,
2013-07-17 04:00:00,69.4,68.8,30.07,NW,313,0.0,0.0,98,0.00,,,0.00,Wunderground v.1.15,2013-07-17 08:00:00,
2013-07-17 04:10:00,69.4,69.1,30.07,NW,313,0.0,0.0,99,0.00,,,0.00,Wunderground v.1.15,2013-07-17 08:10:00,
2013-07-17 04:15:00,69.2,68.9,30.07,NW,313,0.0,0.0,99,0.00,,,0.00,Wunderground v.1.15,2013-07-17 08:15:00,
2013-07-17 04:20:00,69.2,68.9,30.08,NW,313,0.0,0.0,99,0.00,,,0.00,Wunderground v.1.15,2013-07-17 08:20:00,
2013-07-17 04:30:00,69.1,68.8,30.07,NW,313,0.0,0.0,99,0.00,,,0.00,Wunderground v.1.15,2013-07-17 08:30:00,
2013-07-17 04:35:00,69.1,68.8,30.08,NW,313,0.0,0.0,99,0.00,,,0.00,Wunderground v.1.15,2013-07-17 08:35:00,
2013-07-17 04:40:00,69.0,68.7,30.08,NW,313,0.0,0.0,99,0.00,,,0.00,Wunderground v.1.15,2013-07-17 08:40:00,
2013-07-17 04:45:00,68.9,68.6,30.08,NW,313,0.0,0.0,99,0.00,,,0.00,Wunderground v.1.15,2013-07-17 08:45:00,
2013-07-17 04:55:00,68.8,68.5,30.08,NW,313,0.0,0.0,99,0.00,,,0.00,Wunderground v.1.15,2013-07-17 08:55:00,
2013-07-17 05:00:00,68.7,68.4,30.08,NW,313,0.0,0.0,99,0.00,,,0.00,Wunderground v.1.15,2013-07-17 09:00:00,
2013-07-17 05:10:00,68.6,68.3,30.09,NW,313,0.0,0.0,99,0.00,,,0.00,Wunderground v.1.15,2013-07-17 09:10:00,
2013-07-17 05:15:00,68.5,68.2,30.09,NW,313,0.0,0.0,99,0.00,,,0.00,Wunderground v.1.15,2013-07-17 09:15:00,
2013-07-17 05:20:00,68.4,68.1,30.09,NW,313,0.0,0.0,99,0.00,,,0.00,Wunderground v.1.15,2013-07-17 09:20:00,
2013-07-17 05:25:00,68.4,68.1,30.09,NW,313,0.0,0.0,99,0.00,,,0.00,Wunderground v.1.15,2013-07-17 09:25:00,
2013-07-17 05:35:00,68.3,68.0,30.10,NW,313,0.0,0.0,99,0.00,,,0.00,Wunderground v.1.15,2013-07-17 09:35:00,
2013-07-17 05:40:00,68.2,67.9,30.10,NW,313,0.0,0.0,99,0.00,,,0.00,Wunderground v.1.15,2013-07-17 09:40:00,
2013-07-17 05:45:00,68.1,67.8,30.10,NW,313,0.0,0.0,99,0.00,,,0.00,Wunderground v.1.15,2013-07-17 09:45:00,
2013-07-17 05:55:00,68.1,67.8,30.10,NW,313,0.0,0.0,99,0.00,,,0.00,Wunderground v.1.15,2013-07-17 09:55:00,
2013-07-17 06:00:00,68.1,68.1,30.10,NW,313,0.0,0.0,100,0.00,,,0.00,Wunderground v.1.15,2013-07-17 10:00:00,
2013-07-17 06:10:00,68.1,68.1,30.10,NW,313,0.0,0.0,100,0.00,,,0.00,Wunderground v.1.15,2013-07-17 10:10:00,
2013-07-17 06:15:00,68.1,68.1,30.10,NW,313,0.0,0.0,100,0.00,,,0.00,Wunderground v.1.15,2013-07-17 10:15:00,
2013-07-17 06:20:00,68.2,68.2,30.10,NW,313,0.0,0.0,100,0.00,,,0.00,Wunderground v.1.15,2013-07-17 10:20:00,
2013-07-17 06:30:00,68.3,68.3,30.10,NW,313,0.0,0.0,100,0.00,,,0.00,Wunderground v.1.15,2013-07-17 10:30:00,
2013-07-17 06:35:00,68.5,68.5,30.10,NW,313,0.0,0.0,100,0.00,,,0.00,Wunderground v.1.15,2013-07-17 10:35:00,
2013-07-17 06:40:00,68.6,68.6,30.10,NW,313,0.0,0.0,100,0.00,,,0.00,Wunderground v.1.15,2013-07-17 10:40:00,
2013-07-17 06:45:00,68.7,68.7,30.10,NW,313,0.0,0.0,100,0.00,,,0.00,Wunderground v.1.15,2013-07-17 10:45:00,
2013-07-17 06:55:00,69.1,69.1,30.10,NW,313,0.0,0.0,100,0.00,,,0.00,Wunderground v.1.15,2013-07-17 10:55:00,
2013-07-17 07:00:00,69.5,69.5,30.10,NW,313,0.0,0.0,100,0.00,,,0.00,Wunderground v.1.15,2013-07-17 11:00:00,
2013-07-17 07:10:00,70.1,70.1,30.10,NW,313,0.0,0.0,100,0.00,,,0.00,Wunderground v.1.15,2013-07-17 11:10:00,
2013-07-17 07:15:00,70.7,70.7,30.10,NW,313,0.0,0.0,100,0.00,,,0.00,Wunderground v.1.15,2013-07-17 11:15:00,
2013-07-17 07:20:00,71.4,71.4,30.10,NW,313,0.0,0.0,100,0.00,,,0.00,Wunderground v.1.15,2013-07-17 11:20:00,
2013-07-17 07:25:00,72.2,72.2,30.10,NW,313,0.0,0.0,100,0.00,,,0.00,Wunderground v.1.15,2013-07-17 11:25:00,
2013-07-17 07:35:00,73.2,72.3,30.11,NW,313,0.0,0.0,97,0.00,,,0.00,Wunderground v.1.15,2013-07-17 11:35:00,
2013-07-17 07:40:00,73.5,72.3,30.11,NW,313,0.0,0.0,96,0.00,,,0.00,Wunderground v.1.15,2013-07-17 11:40:00,
2013-07-17 07:50:00,74.3,72.5,30.11,NW,313,0.0,0.0,94,0.00,,,0.00,Wunderground v.1.15,2013-07-17 11:50:00,
2013-07-17 07:55:00,74.9,72.1,30.11,NW,313,0.0,0.0,91,0.00,,,0.00,Wunderground v.1.15,2013-07-17 11:55:00,
2013-07-17 08:00:00,75.5,72.4,30.11,NW,313,0.0,0.0,90,0.00,,,0.00,Wunderground v.1.15,2013-07-17 12:00:00,
2013-07-17 08:10:00,76.4,72.6,30.11,NW,313,0.0,0.0,88,0.00,,,0.00,Wunderground v.1.15,2013-07-17 12:10:00,
2013-07-17 08:15:00,76.8,73.0,30.11,NW,313,0.0,0.0,88,0.00,,,0.00,Wunderground v.1.15,2013-07-17 12:15:00,
2013-07-17 08:20:00,77.3,72.8,30.11,NW,313,0.0,0.0,86,0.00,,,0.00,Wunderground v.1.15,2013-07-17 12:20:00,
2013-07-17 08:30:00,78.9,73.7,30.11,NW,313,0.0,0.0,84,0.00,,,0.00,Wunderground v.1.15,2013-07-17 12:30:00,
2013-07-17 08:35:00,79.9,73.9,30.11,NW,313,0.0,0.0,82,0.00,,,0.00,Wunderground v.1.15,2013-07-17 12:35:00,
2013-07-17 08:40:00,80.6,74.6,30.11,NW,313,0.0,0.0,82,0.00,,,0.00,Wunderground v.1.15,2013-07-17 12:40:00,
2013-07-17 08:45:00,81.4,75.0,30.11,NW,313,0.0,0.0,81,0.00,,,0.00,Wunderground v.1.15,2013-07-17 12:45:00,
2013-07-17 08:55:00,82.8,76.0,30.11,NW,313,0.0,0.0,80,0.00,,,0.00,Wunderground v.1.15,2013-07-17 12:55:00,
2013-07-17 09:00:00,83.5,75.1,30.11,NW,313,0.0,0.0,76,0.00,,,0.00,Wunderground v.1.15,2013-07-17 13:00:00,
2013-07-17 09:10:00,84.3,74.7,30.10,NW,313,0.0,0.0,73,0.00,,,0.00,Wunderground v.1.15,2013-07-17 13:10:00,
2013-07-17 09:15:00,84.7,74.3,30.10,NW,313,0.0,0.0,71,0.00,,,0.00,Wunderground v.1.15,2013-07-17 13:15:00,
2013-07-17 09:20:00,85.1,75.1,30.10,NW,313,0.0,0.0,72,0.00,,,0.00,Wunderground v.1.15,2013-07-17 13:20:00,
2013-07-17 09:30:00,86.1,75.2,30.10,NW,319,0.0,0.0,70,0.00,,,0.00,Wunderground v.1.15,2013-07-17 13:30:00,
2013-07-17 09:35:00,86.3,74.0,30.10,NW,325,0.0,0.0,67,0.00,,,0.00,Wunderground v.1.15,2013-07-17 13:35:00,
2013-07-17 09:40:00,86.5,74.2,30.10,NW,325,0.0,0.0,67,0.00,,,0.00,Wunderground v.1.15,2013-07-17 13:40:00,
2013-07-17 09:45:00,86.5,75.1,30.10,NW,325,0.0,0.0,69,0.00,,,0.00,Wunderground v.1.15,2013-07-17 13:45:00,
2013-07-17 09:55:00,86.9,75.1,30.10,NW,325,0.0,0.0,68,0.00,,,0.00,Wunderground v.1.15,2013-07-17 13:55:00,
2013-07-17 10:00:00,87.2,74.9,30.10,NW,325,0.0,0.0,67,0.00,,,0.00,Wunderground v.1.15,2013-07-17 14:00:00,
2013-07-17 10:10:00,88.1,74.8,30.09,NW,323,0.0,0.0,65,0.00,,,0.00,Wunderground v.1.15,2013-07-17 14:10:00,
2013-07-17 10:15:00,88.1,74.4,30.09,NW,323,0.0,0.0,64,0.00,,,0.00,Wunderground v.1.15,2013-07-17 14:15:00,
2013-07-17 10:20:00,87.9,75.1,30.09,NW,315,0.0,0.0,66,0.00,,,0.00,Wunderground v.1.15,2013-07-17 14:20:00,
2013-07-17 10:25:00,87.5,74.3,30.09,ENE,68,1.0,1.0,65,0.00,,,0.00,Wunderground v.1.15,2013-07-17 14:25:00,
2013-07-17 10:35:00,87.1,75.3,30.09,NNW,336,1.0,1.0,68,0.00,,,0.00,Wunderground v.1.15,2013-07-17 14:35:00,
2013-07-17 10:40:00,86.9,74.6,30.09,North,9,1.0,1.0,67,0.00,,,0.00,Wunderground v.1.15,2013-07-17 14:40:00,
2013-07-17 10:45:00,86.7,75.7,30.09,North,355,1.0,1.0,70,0.00,,,0.00,Wunderground v.1.15,2013-07-17 14:45:00,
2013-07-17 10:55:00,86.9,76.4,30.09,North,360,0.0,0.0,71,0.00,,,0.00,Wunderground v.1.15,2013-07-17 14:55:00,
2013-07-17 11:00:00,87.0,76.5,30.09,North,360,0.0,0.0,71,0.00,,,0.00,Wunderground v.1.15,2013-07-17 15:00:00,
2013-07-17 11:10:00,86.5,76.4,30.09,North,360,0.0,0.0,72,0.00,,,0.00,Wunderground v.1.15,2013-07-17 15:10:00,
2013-07-17 11:15:00,86.8,75.4,30.09,North,5,0.0,0.0,69,0.00,,,0.00,Wunderground v.1.15,2013-07-17 15:15:00,
2013-07-17 11:20:00,87.0,75.6,30.09,North,5,1.0,1.0,69,0.00,,,0.00,Wunderground v.1.15,2013-07-17 15:20:00,
2013-07-17 11:25:00,87.3,75.0,30.09,North,360,0.0,1.0,67,0.00,,,0.00,Wunderground v.1.15,2013-07-17 15:25:00,
2013-07-17 11:35:00,88.0,76.5,30.08,WNW,283,0.0,0.0,69,0.00,,,0.00,Wunderground v.1.15,2013-07-17 15:35:00,
2013-07-17 11:40:00,88.5,76.6,30.08,WNW,287,1.0,1.0,68,0.00,,,0.00,Wunderground v.1.15,2013-07-17 15:40:00,
2013-07-17 11:45:00,89.0,76.2,30.08,West,279,1.0,1.0,66,0.00,,,0.00,Wunderground v.1.15,2013-07-17 15:45:00,
2013-07-17 11:55:00,89.5,76.6,30.08,West,263,1.0,1.0,66,0.00,,,0.00,Wunderground v.1.15,2013-07-17 15:55:00,
2013-07-17 12:00:00,89.7,76.8,30.08,SW,219,0.0,0.0,66,0.00,,,0.00,Wunderground v.1.15,2013-07-17 16:00:00,
2013-07-17 12:10:00,89.6,77.2,30.08,SW,223,1.0,4.0,67,0.00,,,0.00,Wunderground v.1.15,2013-07-17 16:10:00,
2013-07-17 12:15:00,89.7,75.9,30.08,North,5,2.0,4.0,64,0.00,,,0.00,Wunderground v.1.15,2013-07-17 16:15:00,
2013-07-17 12:20:00,89.6,75.8,30.07,NNE,17,1.0,1.0,64,0.00,,,0.00,Wunderground v.1.15,2013-07-17 16:20:00,
2013-07-17 12:25:00,89.5,76.6,30.07,SSW,205,1.0,3.0,66,0.00,,,0.00,Wunderground v.1.15,2013-07-17 16:25:00,
2013-07-17 12:35:00,90.2,77.3,30.07,WSW,243,1.0,1.0,66,0.00,,,0.00,Wunderground v.1.15,2013-07-17 16:35:00,
2013-07-17 12:40:00,90.7,76.4,30.07,SW,234,0.0,0.0,63,0.00,,,0.00,Wunderground v.1.15,2013-07-17 16:40:00,
2013-07-17 12:50:00,90.4,75.6,30.07,West,271,2.0,2.0,62,0.00,,,0.00,Wunderground v.1.15,2013-07-17 16:50:00,
2013-07-17 12:55:00,90.2,74.9,30.07,North,355,1.0,2.0,61,0.00,,,0.00,Wunderground v.1.15,2013-07-17 16:55:00,
2013-07-17 13:00:00,89.8,76.0,30.06,North,355,1.0,1.0,64,0.00,,,0.00,Wunderground v.1.15,2013-07-17 17:00:00,
2013-07-17 13:10:00,90.1,74.3,30.06,WNW,289,0.0,0.0,60,0.00,,,0.00,Wunderground v.1.15,2013-07-17 17:10:00,
2013-07-17 13:15:00,90.3,75.0,30.06,WSW,257,1.0,1.0,61,0.00,,,0.00,Wunderground v.1.15,2013-07-17 17:15:00,
2013-07-17 13:20:00,90.4,75.6,30.05,WSW,257,0.0,0.0,62,0.00,,,0.00,Wunderground v.1.15,2013-07-17 17:20:00,
2013-07-17 13:30:00,91.1,75.3,30.05,West,281,0.0,0.0,60,0.00,,,0.00,Wunderground v.1.15,2013-07-17 17:30:00,
2013-07-17 13:35:00,91.4,75.6,30.05,West,278,1.0,1.0,60,0.00,,,0.00,Wunderground v.1.15,2013-07-17 17:35:00,
2013-07-17 13:40:00,91.7,73.2,30.05,NNW,338,1.0,2.0,55,0.00,,,0.00,Wunderground v.1.15,2013-07-17 17:40:00,
2013-07-17 13:50:00,92.0,74.6,30.05,WSW,240,0.0,0.0,57,0.00,,,0.00,Wunderground v.1.15,2013-07-17 17:50:00,
2013-07-17 13:55:00,92.2,75.3,30.05,West,268,0.0,0.0,58,0.00,,,0.00,Wunderground v.1.15,2013-07-17 17:55:00,
2013-07-17 14:10:00,92.6,74.6,30.05,WNW,299,1.0,3.0,56,0.00,,,0.00,Wunderground v.1.15,2013-07-17 18:10:00,
2013-07-17 14:15:00,92.6,75.1,30.05,SSW,209,1.0,3.0,57,0.00,,,0.00,Wunderground v.1.15,2013-07-17 18:15:00,
2013-07-17 14:25:00,92.0,76.6,30.04,SSW,211,1.0,3.0,61,0.00,,,0.00,Wunderground v.1.15,2013-07-17 18:25:00,
2013-07-17 14:30:00,92.2,76.8,30.04,SW,218,1.0,1.0,61,0.00,,,0.00,Wunderground v.1.15,2013-07-17 18:30:00,
2013-07-17 14:35:00,92.5,76.6,30.04,SW,232,1.0,1.0,60,0.00,,,0.00,Wunderground v.1.15,2013-07-17 18:35:00,
2013-07-17 14:45:00,92.7,75.8,30.04,SW,223,1.0,1.0,58,0.00,,,0.00,Wunderground v.1.15,2013-07-17 18:45:00,
2013-07-17 14:50:00,92.8,76.4,30.04,WNW,290,1.0,1.0,59,0.00,,,0.00,Wunderground v.1.15,2013-07-17 18:50:00,
2013-07-17 14:55:00,92.8,76.4,30.03,WSW,254,1.0,1.0,59,0.00,,,0.00,Wunderground v.1.15,2013-07-17 18:55:00,
2013-07-17 15:00:00,92.6,76.2,30.03,SW,216,2.0,2.0,59,0.00,,,0.00,Wunderground v.1.15,2013-07-17 19:00:00,
2013-07-17 15:10:00,92.6,75.7,30.03,WNW,291,1.0,1.0,58,0.00,,,0.00,Wunderground v.1.15,2013-07-17 19:10:00,
2013-07-17 15:15:00,92.9,77.0,30.02,WSW,256,1.0,1.0,60,0.00,,,0.00,Wunderground v.1.15,2013-07-17 19:15:00,
2013-07-17 15:20:00,93.0,76.0,30.02,WSW,244,1.0,1.0,58,0.00,,,0.00,Wunderground v.1.15,2013-07-17 19:20:00,
2013-07-17 15:30:00,93.1,77.2,30.02,WNW,291,1.0,3.0,60,0.00,,,0.00,Wunderground v.1.15,2013-07-17 19:30:00,
2013-07-17 15:35:00,93.1,75.6,30.02,West,278,1.0,3.0,57,0.00,,,0.00,Wunderground v.1.15,2013-07-17 19:35:00,
2013-07-17 15:45:00,92.9,75.4,30.01,WNW,295,0.0,1.0,57,0.00,,,0.00,Wunderground v.1.15,2013-07-17 19:45:00,
2013-07-17 15:50:00,92.9,75.9,30.01,SSW,200,1.0,1.0,58,0.00,,,0.00,Wunderground v.1.15,2013-07-17 19:50:00,
2013-07-17 15:55:00,92.7,77.3,30.01,SSW,210,1.0,1.0,61,0.00,,,0.00,Wunderground v.1.15,2013-07-17 19:55:00,
2013-07-17 16:00:00,92.4,76.5,30.00,SW,225,0.0,0.0,60,0.00,,,0.00,Wunderground v.1.15,2013-07-17 20:00:00,
2013-07-17 16:10:00,93.1,76.1,30.00,West,277,0.0,0.0,58,0.00,,,0.00,Wunderground v.1.15,2013-07-17 20:10:00,
2013-07-17 16:15:00,93.3,75.8,30.00,WNW,288,1.0,1.0,57,0.00,,,0.00,Wunderground v.1.15,2013-07-17 20:15:00,
2013-07-17 16:25:00,93.0,77.6,29.99,SW,219,1.0,6.0,61,0.00,,,0.00,Wunderground v.1.15,2013-07-17 20:25:00,
2013-07-17 16:30:00,92.7,76.8,30.00,SW,232,1.0,1.0,60,0.00,,,0.00,Wunderground v.1.15,2013-07-17 20:30:00,
2013-07-17 16:35:00,92.4,76.0,30.00,WNW,286,1.0,2.0,59,0.00,,,0.00,Wunderground v.1.15,2013-07-17 20:35:00,
2013-07-17 16:45:00,92.8,76.9,29.99,SW,221,1.0,4.0,60,0.00,,,0.00,Wunderground v.1.15,2013-07-17 20:45:00,
2013-07-17 16:50:00,92.6,76.2,29.99,SW,233,2.0,2.0,59,0.00,,,0.00,Wunderground v.1.15,2013-07-17 20:50:00,
2013-07-17 16:55:00,92.2,75.3,29.99,SW,225,2.0,2.0,58,0.00,,,0.00,Wunderground v.1.15,2013-07-17 20:55:00,
2013-07-17 17:10:00,91.4,75.6,29.99,SW,227,2.0,5.0,60,0.00,,,0.00,Wunderground v.1.15,2013-07-17 21:10:00,
2013-07-17 17:15:00,91.5,76.6,29.99,SW,223,1.0,5.0,62,0.00,,,0.00,Wunderground v.1.15,2013-07-17 21:15:00,
2013-07-17 17:20:00,91.9,76.5,29.99,SW,231,1.0,1.0,61,0.00,,,0.00,Wunderground v.1.15,2013-07-17 21:20:00,
2013-07-17 17:30:00,92.1,75.7,29.99,West,263,1.0,1.0,59,0.00,,,0.00,Wunderground v.1.15,2013-07-17 21:30:00,
2013-07-17 17:35:00,91.8,74.9,29.99,SSW,198,1.0,1.0,58,0.00,,,0.00,Wunderground v.1.15,2013-07-17 21:35:00,
2013-07-17 17:45:00,91.3,75.0,29.99,SSW,213,1.0,1.0,59,0.00,,,0.00,Wunderground v.1.15,2013-07-17 21:45:00,
2013-07-17 17:50:00,91.2,74.9,29.98,SSW,213,1.0,1.0,59,0.00,,,0.00,Wunderground v.1.15,2013-07-17 21:50:00,
2013-07-17 17:55:00,91.2,74.9,29.98,SSW,210,1.0,1.0,59,0.00,,,0.00,Wunderground v.1.15,2013-07-17 21:55:00,
2013-07-17 18:00:00,91.3,75.5,29.98,SSW,211,0.0,0.0,60,0.00,,,0.00,Wunderground v.1.15,2013-07-17 22:00:00,
2013-07-17 18:10:00,91.6,75.2,29.98,WSW,238,0.0,0.0,59,0.00,,,0.00,Wunderground v.1.15,2013-07-17 22:10:00,
2013-07-17 18:15:00,91.6,75.2,29.98,SW,226,0.0,0.0,59,0.00,,,0.00,Wunderground v.1.15,2013-07-17 22:15:00,
2013-07-17 18:25:00,91.4,74.5,29.97,WSW,237,0.0,0.0,58,0.00,,,0.00,Wunderground v.1.15,2013-07-17 22:25:00,
2013-07-17 18:30:00,91.2,75.9,29.97,SW,234,0.0,0.0,61,0.00,,,0.00,Wunderground v.1.15,2013-07-17 22:30:00,
2013-07-17 18:35:00,91.0,75.7,29.97,SW,228,0.0,0.0,61,0.00,,,0.00,Wunderground v.1.15,2013-07-17 22:35:00,
2013-07-17 18:40:00,90.7,76.8,29.97,SW,228,0.0,0.0,64,0.00,,,0.00,Wunderground v.1.15,2013-07-17 22:40:00,
2013-07-17 18:50:00,89.9,77.0,29.97,SW,226,0.0,2.0,66,0.00,,,0.00,Wunderground v.1.15,2013-07-17 22:50:00,
2013-07-17 18:55:00,89.5,77.1,29.97,SW,236,0.0,2.0,67,0.00,,,0.00,Wunderground v.1.15,2013-07-17 22:55:00,
2013-07-17 19:10:00,88.4,77.4,29.97,SW,236,0.0,0.0,70,0.00,,,0.00,Wunderground v.1.15,2013-07-17 23:10:00,
2013-07-17 19:15:00,87.9,77.3,29.97,SW,236,0.0,0.0,71,0.00,,,0.00,Wunderground v.1.15,2013-07-17 23:15:00,
2013-07-17 19:20:00,87.5,76.9,29.97,SW,236,0.0,0.0,71,0.00,,,0.00,Wunderground v.1.15,2013-07-17 23:20:00,
2013-07-17 19:30:00,87.1,77.4,29.97,SW,236,0.0,0.0,73,0.00,,,0.00,Wunderground v.1.15,2013-07-17 23:30:00,
2013-07-17 19:35:00,86.7,77.8,29.97,SW,236,0.0,0.0,75,0.00,,,0.00,Wunderground v.1.15,2013-07-17 23:35:00,
2013-07-17 19:40:00,86.3,77.4,29.97,SW,236,0.0,0.0,75,0.00,,,0.00,Wunderground v.1.15,2013-07-17 23:40:00,
2013-07-17 19:45:00,85.9,77.8,29.97,SW,236,0.0,0.0,77,0.00,,,0.00,Wunderground v.1.15,2013-07-17 23:45:00,
2013-07-17 19:55:00,84.8,77.2,29.97,SW,236,0.0,0.0,78,0.00,,,0.00,Wunderground v.1.15,2013-07-17 23:55:00,
2013-07-17 20:00:00,84.2,77.0,29.97,SW,236,0.0,0.0,79,0.00,,,0.00,Wunderground v.1.15,2013-07-18 00:00:00,
2013-07-17 20:10:00,83.4,76.6,29.97,SW,236,0.0,0.0,80,0.00,,,0.00,Wunderground v.1.15,2013-07-18 00:10:00,
2013-07-17 20:15:00,83.0,76.6,29.98,SW,236,0.0,0.0,81,0.00,,,0.00,Wunderground v.1.15,2013-07-18 00:15:00,
2013-07-17 20:20:00,82.7,76.3,29.97,SW,236,0.0,0.0,81,0.00,,,0.00,Wunderground v.1.15,2013-07-18 00:20:00,
2013-07-17 20:25:00,82.4,76.0,29.97,SW,236,0.0,0.0,81,0.00,,,0.00,Wunderground v.1.15,2013-07-18 00:25:00,
2013-07-17 20:35:00,81.9,75.9,29.96,SW,236,0.0,0.0,82,0.00,,,0.00,Wunderground v.1.15,2013-07-18 00:35:00,
2013-07-17 20:40:00,81.6,75.9,29.96,SW,236,0.0,0.0,83,0.00,,,0.00,Wunderground v.1.15,2013-07-18 00:40:00,
2013-07-17 20:50:00,81.1,76.2,29.96,SW,236,0.0,0.0,85,0.00,,,0.00,Wunderground v.1.15,2013-07-18 00:50:00,
2013-07-17 20:55:00,80.9,76.0,29.96,SW,236,0.0,0.0,85,0.00,,,0.00,Wunderground v.1.15,2013-07-18 00:55:00,
2013-07-17 21:00:00,80.9,76.0,29.97,SW,236,0.0,0.0,85,0.00,,,0.00,Wunderground v.1.15,2013-07-18 01:00:00,
2013-07-17 21:10:00,80.9,76.3,29.97,SW,236,0.0,0.0,86,0.00,,,0.00,Wunderground v.1.15,2013-07-18 01:10:00,
2013-07-17 21:15:00,80.9,76.3,29.97,SW,236,0.0,0.0,86,0.00,,,0.00,Wunderground v.1.15,2013-07-18 01:15:00,
2013-07-17 21:20:00,80.7,76.1,29.97,SW,236,0.0,0.0,86,0.00,,,0.00,Wunderground v.1.15,2013-07-18 01:20:00,
2013-07-17 21:30:00,80.2,76.0,29.97,SW,236,0.0,0.0,87,0.00,,,0.00,Wunderground v.1.15,2013-07-18 01:30:00,
2013-07-17 21:35:00,80.1,75.9,29.97,SW,236,0.0,0.0,87,0.00,,,0.00,Wunderground v.1.15,2013-07-18 01:35:00,
2013-07-17 21:40:00,80.0,75.8,29.97,SW,236,0.0,0.0,87,0.00,,,0.00,Wunderground v.1.15,2013-07-18 01:40:00,
2013-07-17 21:50:00,79.8,75.6,29.97,SW,236,0.0,0.0,87,0.00,,,0.00,Wunderground v.1.15,2013-07-18 01:50:00,
2013-07-17 21:55:00,79.8,75.6,29.97,SW,232,1.0,1.0,87,0.00,,,0.00,Wunderground v.1.15,2013-07-18 01:55:00,
2013-07-17 22:10:00,79.5,74.9,29.98,SW,232,0.0,0.0,86,0.00,,,0.00,Wunderground v.1.15,2013-07-18 02:10:00,
2013-07-17 22:15:00,79.5,74.9,29.98,SW,231,0.0,0.0,86,0.00,,,0.00,Wunderground v.1.15,2013-07-18 02:15:00,
2013-07-17 22:20:00,79.4,74.8,29.98,SW,231,0.0,0.0,86,0.00,,,0.00,Wunderground v.1.15,2013-07-18 02:20:00,
2013-07-17 22:30:00,79.3,74.7,29.97,SW,221,0.0,0.0,86,0.00,,,0.00,Wunderground v.1.15,2013-07-18 02:30:00,
2013-07-17 22:35:00,79.2,74.6,29.97,SW,221,1.0,1.0,86,0.00,,,0.00,Wunderground v.1.15,2013-07-18 02:35:00,
2013-07-17 22:45:00,79.1,74.5,29.97,SW,221,1.0,1.0,86,0.00,,,0.00,Wunderground v.1.15,2013-07-18 02:45:00,
2013-07-17 22:50:00,79.0,74.1,29.97,SW,222,0.0,0.0,85,0.00,,,0.00,Wunderground v.1.15,2013-07-18 02:50:00,
2013-07-17 22:55:00,78.9,74.0,29.97,SW,222,0.0,0.0,85,0.00,,,0.00,Wunderground v.1.15,2013-07-18 02:55:00,
2013-07-17 23:00:00,78.8,73.9,29.97,SW,222,0.0,0.0,85,0.00,,,0.00,Wunderground v.1.15,2013-07-18 03:00:00,
2013-07-17 23:10:00,78.7,73.8,29.96,SW,223,0.0,0.0,85,0.00,,,0.00,Wunderground v.1.15,2013-07-18 03:10:00,
2013-07-17 23:15:00,78.7,73.8,29.96,SW,223,0.0,0.0,85,0.00,,,0.00,Wunderground v.1.15,2013-07-18 03:15:00,
2013-07-17 23:25:00,78.5,74.0,29.96,SW,223,0.0,0.0,86,0.00,,,0.00,Wunderground v.1.15,2013-07-18 03:25:00,
2013-07-17 23:30:00,78.3,73.4,29.96,SW,223,0.0,0.0,85,0.00,,,0.00,Wunderground v.1.15,2013-07-18 03:30:00,
2013-07-17 23:35:00,78.2,73.7,29.96,SW,223,0.0,0.0,86,0.00,,,0.00,Wunderground v.1.15,2013-07-18 03:35:00,
2013-07-17 23:45:00,78.0,73.5,29.96,SW,223,0.0,0.0,86,0.00,,,0.00,Wunderground v.1.15,2013-07-18 03:45:00,
2013-07-17 23:50:00,77.8,73.3,29.96,SW,223,0.0,0.0,86,0.00,,,0.00,Wunderground v.1.15,2013-07-18 03:50:00,
2013-07-17 23:55:00,77.6,73.1,29.96,SW,223,0.0,0.0,86,0.00,,,0.00,Wunderground v.1.15,2013-07-18 03:55:00,